createdAt,value
2022-07-26T00:02:00.699Z,2.40
2022-07-26T00:07:04.505Z,2.70
2022-07-26T00:12:09.255Z,2.10
2022-07-26T00:17:14.556Z,2.10
2022-07-26T00:22:36.305Z,2.20
2022-07-26T00:27:40.037Z,2.20
2022-07-26T00:32:45.090Z,2.23
2022-07-26T00:37:49.261Z,2.23
2022-07-26T00:42:54.117Z,1.60
2022-07-26T00:47:59.102Z,1.83
2022-07-26T00:53:02.755Z,2.43
2022-07-26T00:58:06.996Z,1.83
2022-07-26T01:03:12.169Z,2.27
2022-07-26T01:08:16.041Z,2.10
2022-07-26T01:13:21.035Z,2.13
2022-07-26T01:18:26.195Z,2.20
2022-07-26T01:23:31.270Z,2.00
2022-07-26T01:28:39.058Z,2.30
2022-07-26T01:33:43.483Z,2.10
2022-07-26T01:38:48.652Z,2.70
2022-07-26T01:43:52.161Z,2.20
2022-07-26T01:48:55.799Z,2.37
2022-07-26T01:54:01.014Z,2.67
2022-07-26T01:59:04.609Z,2.47
2022-07-26T02:04:08.988Z,2.80
2022-07-26T02:09:14.321Z,2.57
2022-07-26T02:14:25.738Z,2.87
2022-07-26T02:19:32.476Z,2.57
2022-07-26T02:24:37.735Z,3.37
2022-07-26T02:29:41.715Z,2.73
2022-07-26T02:34:45.361Z,2.43
2022-07-26T02:39:50.293Z,2.47
2022-07-26T02:44:54.197Z,2.30
2022-07-26T02:49:57.849Z,3.00
2022-07-26T02:55:20.434Z,2.40
2022-07-26T03:00:25.971Z,2.83
2022-07-26T03:05:29.777Z,2.17
2022-07-26T03:10:34.757Z,2.73
2022-07-26T03:15:38.437Z,2.40
2022-07-26T03:20:42.155Z,3.33
2022-07-26T03:25:47.105Z,2.20
2022-07-26T03:30:50.840Z,2.40
2022-07-26T03:35:54.331Z,2.27
2022-07-26T03:41:00.127Z,2.50
2022-07-26T03:46:03.767Z,2.37
2022-07-26T03:51:07.779Z,2.70
2022-07-26T03:56:32.395Z,3.10
2022-07-26T04:01:36.975Z,2.30
2022-07-26T04:06:41.740Z,2.60
2022-07-26T04:11:48.762Z,2.90
2022-07-26T04:16:52.550Z,2.70
2022-07-26T04:21:56.283Z,2.60
2022-07-26T04:27:01.324Z,2.50
2022-07-26T04:32:05.100Z,2.83
2022-07-26T04:37:08.618Z,2.73
2022-07-26T04:42:13.530Z,2.67
2022-07-26T04:47:17.199Z,2.30
2022-07-26T04:52:21.063Z,3.07
2022-07-26T04:57:26.065Z,2.47
2022-07-26T05:02:29.936Z,2.70
2022-07-26T05:07:41.091Z,2.70
2022-07-26T05:12:46.609Z,3.30
2022-07-26T05:17:50.069Z,2.63
2022-07-26T05:22:53.829Z,2.50
2022-07-26T05:27:58.791Z,2.20
2022-07-26T05:33:02.585Z,1.67
2022-07-26T05:38:06.524Z,2.03
2022-07-26T05:43:11.529Z,1.13
2022-07-26T05:48:15.195Z,1.07
2022-07-26T05:53:18.782Z,0.93
2022-07-26T05:58:23.883Z,1.30
2022-07-26T06:03:27.623Z,1.27
2022-07-26T06:08:31.518Z,0.80
2022-07-26T06:13:36.622Z,0.90
2022-07-26T06:18:40.240Z,1.37
2022-07-26T06:23:43.694Z,1.00
2022-07-26T06:28:50.469Z,1.00
2022-07-26T06:33:53.956Z,0.80
2022-07-26T06:38:57.575Z,0.93
2022-07-26T06:44:02.918Z,1.00
2022-07-26T06:49:07.153Z,0.73
2022-07-26T06:54:11.377Z,0.83
2022-07-26T06:59:16.997Z,0.67
2022-07-26T07:04:20.653Z,1.00
2022-07-26T07:09:24.694Z,0.67
2022-07-26T07:14:30.662Z,0.70
2022-07-26T07:19:37.256Z,0.70
2022-07-26T07:24:42.384Z,0.63
2022-07-26T07:29:47.714Z,0.50
2022-07-26T07:34:51.437Z,0.70
2022-07-26T07:39:55.301Z,0.70
2022-07-26T07:45:01.918Z,0.50
2022-07-26T07:50:06.492Z,0.40
2022-07-26T07:55:36.643Z,0.70
2022-07-26T08:00:36.042Z,0.50
2022-07-26T08:05:40.862Z,0.80
2022-07-26T08:10:51.953Z,0.50
2022-07-26T08:15:58.073Z,0.60
2022-07-26T08:21:04.614Z,0.70
2022-07-26T08:26:08.682Z,0.50
2022-07-26T08:31:13.822Z,0.40
2022-07-26T08:36:18.371Z,0.40
2022-07-26T08:41:23.298Z,0.60
2022-07-26T08:46:28.854Z,0.60
2022-07-26T08:51:33.117Z,0.43
2022-07-26T08:56:38.357Z,0.70
2022-07-26T09:01:57.190Z,0.40
2022-07-26T09:07:03.782Z,0.60
2022-07-26T09:12:18.961Z,0.67
2022-07-26T09:17:26.041Z,0.50
2022-07-26T09:22:29.859Z,0.50
2022-07-26T09:27:37.402Z,0.70
2022-07-26T09:32:42.317Z,0.80
2022-07-26T09:37:47.032Z,0.50
2022-07-26T09:42:58.536Z,0.63
2022-07-26T09:48:04.717Z,0.50
2022-07-26T09:53:09.806Z,1.13
2022-07-26T09:58:14.274Z,0.60
2022-07-26T10:03:19.691Z,0.70
2022-07-26T10:08:23.510Z,0.50
2022-07-26T10:13:30.338Z,0.70
2022-07-26T10:18:50.166Z,0.50
2022-07-26T10:23:57.971Z,0.80
2022-07-26T10:29:27.419Z,0.50
2022-07-26T10:34:34.559Z,0.60
2022-07-26T10:39:39.405Z,0.63
2022-07-26T10:44:45.344Z,0.70
2022-07-26T10:49:58.994Z,0.70
2022-07-26T10:55:11.491Z,0.50
2022-07-26T11:00:24.240Z,0.80
2022-07-26T11:05:33.812Z,0.50
2022-07-26T11:10:39.910Z,0.70
2022-07-26T11:15:46.365Z,0.67
2022-07-26T11:20:55.280Z,0.70
2022-07-26T11:26:14.413Z,0.70
2022-07-26T11:31:20.032Z,0.60
2022-07-26T11:36:39.509Z,0.70
2022-07-26T11:41:44.558Z,1.03
2022-07-26T11:46:48.903Z,0.90
2022-07-26T11:51:55.959Z,0.80
2022-07-26T11:57:01.355Z,1.03
2022-07-26T12:02:07.349Z,1.10
2022-07-26T12:07:15.033Z,0.90
2022-07-26T12:12:23.706Z,1.20
2022-07-26T12:17:35.102Z,1.10
2022-07-26T12:22:41.498Z,0.97
2022-07-26T12:27:47.585Z,1.30
2022-07-26T12:32:54.502Z,1.10
2022-07-26T12:37:59.500Z,1.07
2022-07-26T12:43:03.739Z,1.93
2022-07-26T12:48:11.041Z,1.10
2022-07-26T12:53:15.871Z,1.40
2022-07-26T12:58:19.372Z,1.50
2022-07-26T13:03:23.025Z,1.20
2022-07-26T13:08:27.835Z,1.30
2022-07-26T13:13:31.409Z,1.53
2022-07-26T13:18:34.910Z,1.40
2022-07-26T13:23:40.661Z,1.33
2022-07-26T13:28:44.461Z,1.53
2022-07-26T13:33:53.058Z,1.80
2022-07-26T13:38:58.225Z,1.50
2022-07-26T13:44:01.778Z,1.40
2022-07-26T13:49:07.140Z,0.93
2022-07-26T13:54:13.479Z,1.30
2022-07-26T13:59:17.508Z,0.97
2022-07-26T14:04:22.215Z,1.40
2022-07-26T14:09:27.552Z,0.90
2022-07-26T14:14:31.059Z,0.77
2022-07-26T14:19:36.694Z,0.70
2022-07-26T14:24:41.881Z,1.00
2022-07-26T14:29:46.427Z,0.80
2022-07-26T14:34:50.077Z,0.83
2022-07-26T14:39:55.093Z,1.00
2022-07-26T14:44:58.677Z,0.90
2022-07-26T14:50:06.489Z,1.27
2022-07-26T14:55:13.205Z,1.20
2022-07-26T15:00:18.611Z,1.47
2022-07-26T15:05:23.415Z,0.97
2022-07-26T15:10:31.362Z,1.03
2022-07-26T15:15:35.056Z,1.50
2022-07-26T15:20:40.707Z,1.50
2022-07-26T15:25:48.750Z,1.47
2022-07-26T15:30:52.896Z,1.50
2022-07-26T15:35:56.645Z,1.97
2022-07-26T15:41:01.567Z,1.90
2022-07-26T15:46:06.210Z,2.07
2022-07-26T15:51:11.699Z,2.07
2022-07-26T15:56:17.176Z,2.00
2022-07-26T16:01:20.936Z,1.90
2022-07-26T16:06:24.636Z,1.33
2022-07-26T16:11:30.176Z,2.30
2022-07-26T16:16:34.086Z,2.13
2022-07-26T16:21:38.304Z,2.27
2022-07-26T16:26:43.998Z,2.47
2022-07-26T16:31:48.440Z,2.63
2022-07-26T16:36:51.967Z,2.30
2022-07-26T16:41:57.101Z,1.90
2022-07-26T16:47:01.096Z,2.20
2022-07-26T16:52:05.880Z,1.87
2022-07-26T16:57:11.242Z,1.80
2022-07-26T17:02:15.011Z,1.83
2022-07-26T17:07:26.404Z,1.80
2022-07-26T17:12:31.876Z,1.90
2022-07-26T17:17:35.431Z,1.90
2022-07-26T17:22:39.407Z,2.07
2022-07-26T17:27:44.705Z,2.03
2022-07-26T17:32:48.679Z,1.70
2022-07-26T17:37:55.571Z,1.80
2022-07-26T17:43:01.407Z,2.07
2022-07-26T17:48:06.503Z,1.83
2022-07-26T17:53:10.509Z,2.30
2022-07-26T17:58:15.562Z,1.73
2022-07-26T18:03:20.264Z,1.70
2022-07-26T18:08:27.233Z,1.53
2022-07-26T18:13:32.509Z,1.80
2022-07-26T18:18:36.420Z,1.70
2022-07-26T18:23:54.635Z,1.67
2022-07-26T18:29:04.800Z,1.67
2022-07-26T18:34:08.471Z,1.80
2022-07-26T18:39:13.541Z,1.60
2022-07-26T18:44:19.542Z,2.07
2022-07-26T18:49:30.703Z,2.13
2022-07-26T18:54:34.673Z,1.80
2022-07-26T18:59:39.805Z,1.97
2022-07-26T19:04:43.416Z,2.00
2022-07-26T19:09:46.810Z,2.23
2022-07-26T19:14:51.796Z,2.43
2022-07-26T19:19:56.204Z,2.60
2022-07-26T19:25:00.815Z,4.37
2022-07-26T19:30:06.720Z,2.00
2022-07-26T19:35:10.924Z,2.00
2022-07-26T19:40:14.461Z,2.40
2022-07-26T19:45:19.406Z,2.37
2022-07-26T19:50:22.933Z,2.30
2022-07-26T19:55:26.483Z,2.37
2022-07-26T20:00:31.591Z,3.07
2022-07-26T20:05:35.191Z,2.30
2022-07-26T20:10:38.706Z,2.60
2022-07-26T20:15:44.245Z,2.60
2022-07-26T20:20:47.821Z,2.50
2022-07-26T20:25:51.456Z,2.30
2022-07-26T20:30:56.539Z,2.17
2022-07-26T20:36:00.128Z,2.20
2022-07-26T20:41:03.690Z,2.50
2022-07-26T20:46:10.873Z,2.20
2022-07-26T20:51:14.483Z,2.53
2022-07-26T20:56:18.616Z,1.93
2022-07-26T21:01:24.387Z,2.37
2022-07-26T21:06:29.173Z,1.93
2022-07-26T21:11:33.418Z,2.27
2022-07-26T21:16:39.089Z,2.30
2022-07-26T21:21:42.717Z,2.10
2022-07-26T21:26:46.150Z,1.90
2022-07-26T21:31:51.140Z,2.30
2022-07-26T21:36:54.986Z,1.80
2022-07-26T21:41:58.548Z,2.07
2022-07-26T21:47:05.906Z,2.00
2022-07-26T21:52:09.861Z,2.10
2022-07-26T21:57:13.507Z,1.70
2022-07-26T22:02:19.934Z,1.63
2022-07-26T22:07:25.390Z,1.63
2022-07-26T22:12:30.074Z,1.60
2022-07-26T22:17:35.036Z,2.00
2022-07-26T22:22:39.129Z,1.80
2022-07-26T22:27:42.653Z,1.67
2022-07-26T22:32:47.756Z,2.63
2022-07-26T22:37:51.695Z,2.00
2022-07-26T22:42:58.756Z,1.90
2022-07-26T22:48:04.861Z,1.80
2022-07-26T22:53:08.296Z,1.70
2022-07-26T22:58:12.219Z,1.60
2022-07-26T23:03:20.090Z,1.97
2022-07-26T23:13:52.075Z,1.27
2022-07-26T23:19:04.134Z,1.20
2022-07-26T23:24:08.367Z,0.90
2022-07-26T23:29:12.324Z,1.00
2022-07-26T23:34:17.646Z,0.93
2022-07-26T23:39:22.306Z,0.70
2022-07-26T23:44:25.982Z,0.70
2022-07-26T23:49:31.139Z,0.97
2022-07-26T23:54:34.778Z,0.53
2022-07-26T23:59:38.423Z,0.57
